Terminal Aerodrome Forecast
Issued by NWS

Home | Current Version | Previous Version | Text Only | Print | Product List | Glossary On
Versions: 1 2 3 4 5 6 7 8 9 10 11 12 13 14 15
000
FTUS46 KSEW 220538
TAFPAE
TAF
KPAE 220538Z 2206/2306 16008KT P6SM VCSH BKN045 OVC070
      TEMPO 2208/2209 -SHRA BKN030 OVC070
     FM221000 12006KT P6SM BKN050 OVC080
     FM221700 15010KT P6SM -RA BKN030 OVC050
     FM222300 17008KT P6SM SCT050 BKN100=

USA.gov is the U.S. government's official web portal to all federal, state and local government web resources and services.